Time;durP1;ratioP1;P1;durP2;ratioP2;P2;SDS_P1;SDS_P2;PMS_P1;PMS_P2;Temp;Humidity;BMP_temperature;BMP_pressure;BME280_temperature;BME280_humidity;BME280_pressure;Samples;Min_cycle;Max_cycle;Signal;HPM_P1;HPM_P2
2022/04/20 00:00:00;;;;;;;2.08;1.02;;;;;;;12.50;75.35;101314.00;2064930;28;20046;-71
2022/04/20 00:01:23;;;;;;;4.13;1.17;;;;;;;12.47;75.71;101318.34;2070971;28;20125;-71
2022/04/20 00:02:46;;;;;;;3.60;1.35;;;;;;;12.41;75.16;101313.81;2086712;28;20041;-71
2022/04/20 00:04:08;;;;;;;4.85;1.13;;;;;;;12.36;74.96;101315.50;2067393;28;20039;-71
2022/04/20 00:05:33;;;;;;;3.10;1.20;;;;;;;12.31;74.95;101314.53;2070351;28;20574;-71
2022/04/20 00:06:55;;;;;;;3.38;1.10;;;;;;;12.27;75.39;101313.59;2085750;28;20634;-71
2022/04/20 00:08:20;;;;;;;2.42;1.20;;;;;;;12.29;75.06;101319.81;2070091;28;20058;-71
2022/04/20 00:09:42;;;;;;;3.97;1.20;;;;;;;12.29;75.42;101310.97;2052576;28;20071;-71
2022/04/20 00:11:05;;;;;;;4.03;1.33;;;;;;;12.32;75.73;101321.63;2059844;28;20050;-71
2022/04/20 00:12:27;;;;;;;2.70;1.00;;;;;;;12.33;75.51;101315.47;2062207;28;20077;-71
2022/04/20 00:13:49;;;;;;;2.60;1.10;;;;;;;12.33;75.42;101316.38;2054618;28;20142;-70
2022/04/20 00:15:11;;;;;;;2.10;0.80;;;;;;;12.33;75.74;101321.66;2067168;28;20054;-71
2022/04/20 00:16:32;;;;;;;2.90;1.10;;;;;;;12.32;75.79;101317.22;2056922;28;20055;-71
2022/04/20 00:17:55;;;;;;;2.42;1.27;;;;;;;12.32;75.49;101321.63;2070564;28;20777;-71
2022/04/20 00:19:16;;;;;;;4.20;1.17;;;;;;;12.30;75.17;101318.94;2066100;28;20534;-71
2022/04/20 00:20:39;;;;;;;3.60;1.00;;;;;;;12.29;75.40;101314.50;2070363;28;20061;-71
2022/04/20 00:22:01;;;;;;;2.58;1.30;;;;;;;12.28;75.52;101318.00;2062692;28;20046;-71
2022/04/20 00:23:24;;;;;;;5.88;1.13;;;;;;;12.28;75.51;101322.41;2074238;28;20049;-70
2022/04/20 00:24:47;;;;;;;1.30;0.75;;;;;;;12.26;75.05;101310.94;2069334;28;20405;-70
2022/04/20 00:26:10;;;;;;;1.55;0.93;;;;;;;12.20;75.13;101314.38;2067708;28;20117;-71
2022/04/20 00:27:34;;;;;;;1.88;0.77;;;;;;;12.18;76.01;101307.25;2078613;28;20068;-71
2022/04/20 00:28:55;;;;;;;3.15;1.30;;;;;;;12.16;75.85;101314.25;2072957;28;20524;-71
2022/04/20 00:30:18;;;;;;;2.40;1.20;;;;;;;12.15;75.41;101316.00;2065098;28;20042;-71
2022/04/20 00:31:39;;;;;;;2.00;1.00;;;;;;;12.16;76.23;101314.25;2064833;28;20081;-71
2022/04/20 00:33:02;;;;;;;2.83;1.30;;;;;;;12.17;75.67;101313.41;2066309;28;20046;-71
2022/04/20 00:34:24;;;;;;;2.83;1.13;;;;;;;12.16;75.63;101307.22;2077634;28;20610;-71
2022/04/20 00:35:48;;;;;;;2.90;1.10;;;;;;;12.13;75.72;101308.94;2070436;28;20105;-71
2022/04/20 00:37:10;;;;;;;3.20;1.00;;;;;;;12.09;75.99;101307.97;2075542;28;20053;-71
2022/04/20 00:38:34;;;;;;;2.60;1.02;;;;;;;12.08;76.23;101313.25;2078768;28;20136;-71
2022/04/20 00:39:57;;;;;;;3.25;1.17;;;;;;;12.04;76.10;101311.41;2062386;28;20528;-71
2022/04/20 00:41:20;;;;;;;2.15;1.10;;;;;;;12.00;75.91;101313.13;2059662;28;20518;-70
2022/04/20 00:42:43;;;;;;;3.20;1.40;;;;;;;11.99;76.16;101319.25;2064912;28;20043;-71
2022/04/20 00:44:06;;;;;;;2.35;1.20;;;;;;;11.99;76.55;101311.31;2067968;28;20557;-71
2022/04/20 00:45:32;;;;;;;3.75;0.90;;;;;;;12.01;76.16;101309.59;2062459;28;20046;-71
2022/04/20 00:46:55;;;;;;;1.95;1.13;;;;;;;12.01;76.07;101314.91;2059271;28;20043;-71
2022/04/20 00:48:21;;;;;;;3.58;1.13;;;;;;;12.03;76.06;101312.25;2076133;28;20500;-71
2022/04/20 00:49:48;;;;;;;2.55;1.10;;;;;;;12.09;76.08;101312.38;2064575;28;20042;-71
2022/04/20 00:51:11;;;;;;;2.22;1.23;;;;;;;12.11;76.17;101311.53;2085135;28;20061;-71
2022/04/20 00:52:34;;;;;;;2.78;1.38;;;;;;;12.14;75.63;101308.06;2070734;28;20038;-71
2022/04/20 00:54:01;;;;;;;2.83;1.45;;;;;;;12.12;75.52;101318.63;2066675;28;20050;-71
2022/04/20 00:55:23;;;;;;;3.88;1.50;;;;;;;12.04;75.23;101309.66;2068479;28;20058;-71
2022/04/20 00:56:46;;;;;;;3.60;1.90;;;;;;;11.97;75.13;101319.22;2078410;28;20056;-71
2022/04/20 00:58:08;;;;;;;2.28;1.52;;;;;;;11.94;75.08;101319.19;2064939;28;20141;-71
2022/04/20 00:59:33;;;;;;;4.65;1.70;;;;;;;11.92;74.97;101312.06;2078830;28;20055;-71
2022/04/20 01:00:55;;;;;;;4.78;1.90;;;;;;;11.87;75.56;101312.00;2066621;28;20078;-71
2022/04/20 01:02:19;;;;;;;2.60;1.25;;;;;;;11.86;75.15;101311.97;2061734;28;20058;-71
2022/04/20 01:03:44;;;;;;;4.35;1.70;;;;;;;11.83;74.99;101312.78;2070474;28;20038;-71
2022/04/20 01:05:33;;;;;;;4.68;1.63;;;;;;;11.81;75.24;101314.53;2056705;28;20489;-71
2022/04/20 01:07:12;;;;;;;2.58;1.40;;;;;;;11.88;75.37;101307.59;2067001;28;20069;-71
2022/04/20 01:08:46;;;;;;;3.83;1.38;;;;;;;11.85;74.46;101313.72;2075367;28;20061;-71
2022/04/20 01:10:29;;;;;;;1.95;1.30;;;;;;;11.82;74.98;101310.09;2072975;28;20112;-71
2022/04/20 01:12:12;;;;;;;4.68;1.77;;;;;;;11.84;74.34;101311.91;2089454;28;20498;-71
2022/04/20 01:13:53;;;;;;;5.47;1.38;;;;;;;11.87;75.19;101314.63;2072925;28;20064;-71
2022/04/20 01:15:23;;;;;;;5.13;1.70;;;;;;;11.92;75.14;101312.97;2062138;28;20492;-71
2022/04/20 01:17:12;;;;;;;4.50;1.58;;;;;;;11.96;75.01;101309.50;2064817;28;20082;-71
2022/04/20 01:18:51;;;;;;;3.13;1.50;;;;;;;11.96;74.56;101309.50;2071556;28;20057;-71
2022/04/20 01:20:35;;;;;;;3.40;1.77;;;;;;;11.91;74.62;101312.94;2078610;28;20037;-70
2022/04/20 01:22:21;;;;;;;3.72;1.75;;;;;;;11.87;74.91;101305.81;2077173;28;20053;-71
2022/04/20 01:24:02;;;;;;;2.80;1.70;;;;;;;11.88;74.57;101311.09;2080798;28;20095;-71
2022/04/20 01:25:54;;;;;;;5.57;1.88;;;;;;;11.89;74.18;101310.25;2072287;28;20054;-71
2022/04/20 01:27:42;;;;;;;4.22;1.85;;;;;;;11.96;74.55;101308.59;2079999;28;20179;-71
2022/04/20 01:29:11;;;;;;;4.85;1.67;;;;;;;12.00;73.97;101318.41;2078806;28;20061;-71
2022/04/20 01:31:03;;;;;;;2.72;1.20;;;;;;;11.99;74.35;101311.31;2063009;28;20054;-71
2022/04/20 01:32:43;;;;;;;4.78;1.80;;;;;;;11.99;74.19;101313.97;2065295;28;20045;-71
2022/04/20 01:34:09;;;;;;;5.05;1.30;;;;;;;12.03;74.04;101317.56;2060308;28;20046;-71
2022/04/20 01:35:32;;;;;;;4.55;1.35;;;;;;;12.04;74.12;101321.97;2067160;28;20048;-71
2022/04/20 01:36:56;;;;;;;1.95;1.00;;;;;;;12.01;73.99;101314.00;2074534;28;20041;-70
2022/04/20 01:38:18;;;;;;;2.55;1.30;;;;;;;12.02;73.85;101311.38;2064345;28;20429;-71
2022/04/20 01:39:41;;;;;;;2.83;1.50;;;;;;;12.03;74.24;101312.25;2061846;28;20057;-71
2022/04/20 01:41:03;;;;;;;5.07;1.30;;;;;;;12.03;73.93;101314.91;2067456;28;20531;-70
2022/04/20 01:42:25;;;;;;;4.82;1.45;;;;;;;12.02;73.57;101318.41;2061680;28;20133;-71
2022/04/20 01:43:51;;;;;;;2.03;1.30;;;;;;;11.97;74.06;101313.94;2060215;28;20042;-71
2022/04/20 01:45:24;;;;;;;1.90;1.17;;;;;;;11.92;74.11;101314.72;2079729;28;20407;-70
2022/04/20 01:47:07;;;;;;;7.43;1.70;;;;;;;11.87;74.12;101316.38;2058547;28;20393;-71
2022/04/20 01:48:30;;;;;;;2.70;1.10;;;;;;;11.85;74.56;101312.81;2074880;28;20527;-71
2022/04/20 01:50:16;;;;;;;4.15;1.27;;;;;;;11.81;74.50;101313.63;2080217;28;20053;-71
2022/04/20 01:52:02;;;;;;;3.15;1.05;;;;;;;11.77;74.39;101311.78;2080505;28;20510;-71
2022/04/20 01:53:53;;;;;;;3.22;1.40;;;;;;;11.73;74.65;101315.19;2072614;28;20108;-71
2022/04/20 01:55:38;;;;;;;5.30;1.30;;;;;;;11.66;74.25;101315.94;2080711;28;20065;-71
2022/04/20 01:57:30;;;;;;;4.85;1.52;;;;;;;11.61;74.27;101310.56;2063562;28;20065;-70
2022/04/20 01:59:13;;;;;;;5.68;1.90;;;;;;;11.60;74.38;101319.34;2071232;28;20054;-71
2022/04/20 02:00:52;;;;;;;6.82;1.30;;;;;;;11.58;74.39;101310.47;2066834;28;20493;-71
2022/04/20 02:02:34;;;;;;;10.57;1.30;;;;;;;11.55;73.96;101313.09;2065243;28;20038;-71
2022/04/20 02:04:16;;;;;;;4.07;1.52;;;;;;;11.50;74.07;101312.97;2064212;28;20050;-71
2022/04/20 02:05:38;;;;;;;3.80;1.25;;;;;;;11.49;74.31;101310.28;2069752;28;20085;-71
2022/04/20 02:07:32;;;;;;;3.92;1.60;;;;;;;11.42;74.39;101308.41;2073997;28;20088;-70
2022/04/20 02:08:54;;;;;;;3.70;1.27;;;;;;;11.38;74.27;101311.81;2071157;28;20041;-71
2022/04/20 02:10:49;;;;;;;5.70;1.30;;;;;;;11.33;74.52;101311.72;2069691;28;20184;-71
2022/04/20 02:12:11;;;;;;;3.60;1.88;;;;;;;11.33;74.28;101309.09;2069895;28;20045;-71
2022/04/20 02:13:54;;;;;;;4.32;1.42;;;;;;;11.32;74.29;101317.88;2088014;28;20089;-71
2022/04/20 02:15:16;;;;;;;6.68;2.05;;;;;;;11.30;74.04;101310.75;2074574;28;20073;-70
2022/04/20 02:16:59;;;;;;;8.10;1.65;;;;;;;11.31;74.13;101320.47;2071424;28;20057;-71
2022/04/20 02:18:34;;;;;;;5.30;1.80;;;;;;;11.33;73.85;101317.03;2063508;28;20052;-71
2022/04/20 02:20:15;;;;;;;3.90;1.73;;;;;;;11.36;73.90;101317.06;2080223;28;20088;-70
2022/04/20 02:21:38;;;;;;;4.43;1.73;;;;;;;11.37;73.90;101315.31;2058788;28;20046;-71
2022/04/20 02:23:02;;;;;;;3.60;1.70;;;;;;;11.39;74.24;101319.78;2058989;28;20050;-70
2022/04/20 02:24:23;;;;;;;2.58;1.20;;;;;;;11.36;74.12;101329.38;2053454;28;20044;-70
2022/04/20 02:25:46;;;;;;;4.32;1.35;;;;;;;11.36;74.05;101326.75;2050680;28;20043;-71
2022/04/20 02:27:10;;;;;;;3.15;1.10;;;;;;;11.33;74.16;101326.69;2058959;28;20056;-72
2022/04/20 02:28:31;;;;;;;6.72;1.95;;;;;;;11.31;73.98;101324.00;2077607;28;20104;-71
2022/04/20 02:29:54;;;;;;;4.80;1.75;;;;;;;11.30;74.14;101321.34;2058363;28;20129;-72
2022/04/20 02:31:17;;;;;;;1.92;1.17;;;;;;;11.26;74.17;101330.06;2075435;28;20172;-71
2022/04/20 02:32:39;;;;;;;3.35;1.33;;;;;;;11.23;74.32;101325.59;2066295;28;20132;-71
2022/04/20 02:34:01;;;;;;;4.32;1.45;;;;;;;11.20;74.49;101328.19;2045523;29;20500;-71
2022/04/20 02:35:24;;;;;;;1.92;1.00;;;;;;;11.19;74.55;101327.28;2052211;28;20447;-70
2022/04/20 02:36:45;;;;;;;4.15;1.30;;;;;;;11.21;74.86;101322.03;2067011;28;20049;-70
2022/04/20 02:38:11;;;;;;;2.50;0.88;;;;;;;11.25;75.04;101323.00;2069316;28;20058;-71
2022/04/20 02:39:35;;;;;;;7.63;1.42;;;;;;;11.27;75.04;101319.53;2063888;28;20141;-71
2022/04/20 02:40:59;;;;;;;4.80;1.40;;;;;;;11.29;75.10;101330.16;2061900;28;20052;-71
2022/04/20 02:42:22;;;;;;;2.92;1.52;;;;;;;11.30;74.95;101323.97;2066249;28;20050;-71
2022/04/20 02:43:43;;;;;;;2.75;1.60;;;;;;;11.28;74.82;101331.91;2069791;28;20141;-71
2022/04/20 02:45:06;;;;;;;3.40;1.30;;;;;;;11.24;74.98;101337.06;2077322;28;20162;-71
2022/04/20 02:46:28;;;;;;;4.05;1.65;;;;;;;11.09;75.15;101325.28;2071693;28;20551;-71
2022/04/20 02:47:51;;;;;;;3.17;1.13;;;;;;;11.00;75.40;101334.75;2080335;28;20144;-70
2022/04/20 02:49:15;;;;;;;6.40;1.50;;;;;;;10.96;75.73;101330.28;2071832;28;20050;-71
2022/04/20 02:50:38;;;;;;;6.65;1.75;;;;;;;10.99;75.94;101332.97;2076144;28;20057;-71
2022/04/20 02:52:01;;;;;;;5.93;1.30;;;;;;;11.04;75.88;101331.31;2070621;28;20096;-70
2022/04/20 02:53:27;;;;;;;2.92;1.20;;;;;;;11.10;75.83;101334.09;2075735;28;20049;-71
2022/04/20 02:54:50;;;;;;;5.05;1.70;;;;;;;11.15;75.66;101338.66;2064171;28;20100;-71
2022/04/20 02:56:12;;;;;;;6.13;1.23;;;;;;;11.18;75.66;101333.44;2066749;28;20519;-71
2022/04/20 02:57:34;;;;;;;2.80;0.50;;;;;;;11.23;75.54;101336.16;2061330;28;20046;-71
2022/04/20 02:58:56;;;;;;;2.20;1.60;;;;;;;11.31;75.58;101341.63;2058712;28;20675;-71
2022/04/20 03:00:19;;;;;;;3.75;1.17;;;;;;;11.36;75.46;101345.25;2058144;28;20879;-71
2022/04/20 03:01:48;;;;;;;4.00;1.40;;;;;;;11.38;75.42;101341.78;2052259;28;20074;-71
2022/04/20 03:03:14;;;;;;;3.30;1.10;;;;;;;11.38;75.34;101335.59;2058679;28;20050;-71
2022/04/20 03:04:37;;;;;;;4.22;1.67;;;;;;;11.38;75.28;101343.53;2058737;28;21051;-71
2022/04/20 03:05:59;;;;;;;3.00;1.30;;;;;;;11.36;75.27;101348.78;2053211;28;20051;-70
2022/04/20 03:07:22;;;;;;;5.97;1.60;;;;;;;11.34;75.39;101347.88;2065700;28;20474;-71
2022/04/20 03:08:52;;;;;;;6.53;1.60;;;;;;;11.34;75.52;101339.97;2065777;28;20038;-70
2022/04/20 03:10:18;;;;;;;4.25;1.52;;;;;;;11.34;75.46;101344.34;2053576;28;20146;-71
2022/04/20 03:11:42;;;;;;;5.25;1.30;;;;;;;11.31;75.31;101350.44;2064640;28;20105;-71
2022/04/20 03:13:04;;;;;;;2.35;1.27;;;;;;;11.22;75.28;101341.44;2085418;28;20044;-71
2022/04/20 03:14:27;;;;;;;4.00;1.25;;;;;;;11.13;75.51;101340.38;2065985;28;20133;-70
2022/04/20 03:15:54;;;;;;;2.28;1.40;;;;;;;11.01;75.70;101340.09;2060210;28;20100;-71
2022/04/20 03:17:17;;;;;;;4.22;1.70;;;;;;;10.94;75.72;101350.47;2058558;28;20150;-70
2022/04/20 03:18:38;;;;;;;3.17;1.52;;;;;;;10.89;76.01;101344.19;2057795;28;20054;-70
2022/04/20 03:20:11;;;;;;;7.72;1.67;;;;;;;10.91;75.83;101347.75;2062082;28;20091;-71
2022/04/20 03:21:34;;;;;;;1.83;1.10;;;;;;;10.94;75.86;101347.84;2076915;28;20091;-70
2022/04/20 03:22:59;;;;;;;5.55;1.20;;;;;;;10.95;75.69;101353.16;2063639;28;20480;-70
2022/04/20 03:24:24;;;;;;;5.00;1.80;;;;;;;11.01;75.85;101349.78;2064480;28;20136;-71
2022/04/20 03:26:18;;;;;;;6.72;1.67;;;;;;;11.02;75.57;101352.44;2064144;28;20050;-71
2022/04/20 03:28:07;;;;;;;4.07;2.20;;;;;;;11.04;75.32;101353.34;2073011;28;20444;-70
2022/04/20 03:29:30;;;;;;;6.32;1.95;;;;;;;11.06;75.37;101353.41;2063062;28;20137;-70
2022/04/20 03:30:52;;;;;;;4.13;2.10;;;;;;;11.06;75.45;101354.28;2066527;28;20563;-70
2022/04/20 03:32:17;;;;;;;3.28;1.45;;;;;;;11.09;75.41;101351.69;2069369;28;20076;-70
2022/04/20 03:33:39;;;;;;;3.75;1.50;;;;;;;11.06;75.31;101359.56;2077454;28;20061;-71
2022/04/20 03:35:02;;;;;;;5.85;1.10;;;;;;;11.01;75.27;101361.22;2062868;28;20046;-70
2022/04/20 03:36:25;;;;;;;6.05;2.10;;;;;;;10.92;75.46;101355.72;2069353;28;20132;-70
2022/04/20 03:37:47;;;;;;;5.57;1.83;;;;;;;10.84;75.58;101359.91;2069145;28;20050;-70
2022/04/20 03:39:10;;;;;;;5.28;1.75;;;;;;;10.77;75.62;101358.88;2084228;28;20114;-71
2022/04/20 03:40:35;;;;;;;4.35;1.60;;;;;;;10.74;75.97;101355.28;2057996;28;20047;-71
2022/04/20 03:41:57;;;;;;;6.32;1.88;;;;;;;10.72;75.86;101360.53;2064935;28;20451;-71
2022/04/20 03:43:20;;;;;;;3.90;1.48;;;;;;;10.74;75.93;101360.56;2060214;28;20061;-71
2022/04/20 03:44:42;;;;;;;7.82;1.92;;;;;;;10.77;75.69;101365.91;2058676;28;20061;-71
2022/04/20 03:46:05;;;;;;;7.55;1.55;;;;;;;10.81;75.62;101366.88;2074673;28;20041;-71
2022/04/20 03:47:29;;;;;;;4.80;1.30;;;;;;;10.85;75.70;101363.44;2071437;28;20061;-71
2022/04/20 03:48:53;;;;;;;4.00;1.40;;;;;;;10.89;75.63;101363.59;2056584;28;20141;-71
2022/04/20 03:50:15;;;;;;;4.45;2.15;;;;;;;10.93;75.66;101368.06;2066789;28;20045;-71
2022/04/20 03:51:39;;;;;;;3.90;1.52;;;;;;;10.96;75.50;101365.47;2069350;28;20133;-71
2022/04/20 03:53:02;;;;;;;3.28;1.40;;;;;;;11.00;75.58;101372.66;2066529;28;20054;-71
2022/04/20 03:54:25;;;;;;;5.95;1.63;;;;;;;11.06;75.64;101367.50;2077259;28;20145;-71
2022/04/20 03:55:49;;;;;;;3.78;2.05;;;;;;;11.12;75.64;101372.03;2060978;28;20054;-70
2022/04/20 03:57:10;;;;;;;7.07;1.88;;;;;;;11.17;75.65;101366.00;2058713;28;20094;-71
2022/04/20 03:58:40;;;;;;;12.65;2.80;;;;;;;11.25;75.65;101373.19;2062593;28;20057;-70
2022/04/20 04:00:05;;;;;;;3.83;1.50;;;;;;;11.35;75.68;101372.56;2072985;28;20434;-71
2022/04/20 04:01:27;;;;;;;4.32;1.70;;;;;;;11.41;75.75;101375.34;2063592;28;20439;-70
2022/04/20 04:02:49;;;;;;;9.10;2.13;;;;;;;11.47;75.71;101379.00;2076929;28;20169;-71
2022/04/20 04:04:24;;;;;;;6.00;1.92;;;;;;;11.57;75.72;101380.97;2060597;28;20085;-70
2022/04/20 04:05:51;;;;;;;6.60;2.28;;;;;;;11.66;75.80;101385.59;2066630;28;20034;-71
2022/04/20 04:07:16;;;;;;;5.30;1.80;;;;;;;11.74;75.74;101383.13;2068033;28;20061;-71
2022/04/20 04:08:39;;;;;;;3.92;1.98;;;;;;;11.80;75.75;101388.56;2061604;28;20043;-71
2022/04/20 04:10:01;;;;;;;8.57;2.38;;;;;;;11.89;75.86;101392.25;2068950;28;20046;-71
2022/04/20 04:11:26;;;;;;;4.75;1.80;;;;;;;12.05;75.86;101392.56;2066364;28;20081;-71
2022/04/20 04:12:49;;;;;;;3.20;1.70;;;;;;;12.15;76.15;101391.88;2068830;28;20495;-71
2022/04/20 04:14:11;;;;;;;9.77;1.88;;;;;;;12.24;76.20;101390.31;2058701;28;20046;-71
2022/04/20 04:15:34;;;;;;;3.22;1.98;;;;;;;12.33;76.11;101393.16;2070631;28;20149;-71
2022/04/20 04:16:56;;;;;;;6.80;2.47;;;;;;;12.40;76.15;101390.59;2063010;28;20081;-70
2022/04/20 04:18:18;;;;;;;3.80;1.65;;;;;;;12.51;76.35;101391.69;2065379;28;20050;-71
2022/04/20 04:19:44;;;;;;;4.00;1.70;;;;;;;12.65;76.33;101403.41;2058444;28;20535;-71
2022/04/20 04:21:07;;;;;;;5.07;1.85;;;;;;;12.77;76.36;101396.56;2059077;28;20534;-70
2022/04/20 04:22:28;;;;;;;6.22;2.15;;;;;;;12.91;76.42;101403.84;2066529;28;20054;-71
2022/04/20 04:24:37;;;;;;;5.20;1.90;;;;;;;13.06;76.23;101404.09;2071335;28;20149;-71
2022/04/20 04:26:06;;;;;;;2.83;1.63;;;;;;;13.23;76.17;101399.97;2071718;28;20046;-71
2022/04/20 04:27:41;;;;;;;4.25;1.65;;;;;;;13.38;76.15;101396.66;2068979;28;20082;-71
2022/04/20 04:29:03;;;;;;;4.82;1.50;;;;;;;13.50;75.72;101397.72;2063736;28;20039;-71
2022/04/20 04:30:28;;;;;;;3.70;1.55;;;;;;;13.63;75.74;101398.78;2072591;28;20045;-71
2022/04/20 04:31:55;;;;;;;3.63;1.35;;;;;;;13.75;75.43;101392.72;2061701;28;20133;-71
2022/04/20 04:33:18;;;;;;;5.55;1.73;;;;;;;13.88;75.19;101392.00;2066466;28;20150;-71
2022/04/20 04:34:40;;;;;;;3.70;1.63;;;;;;;14.00;75.01;101392.16;2070380;28;20560;-71
2022/04/20 04:36:07;;;;;;;2.30;1.20;;;;;;;14.13;74.79;101386.13;2065937;28;20072;-71
2022/04/20 04:37:36;;;;;;;7.25;1.77;;;;;;;14.27;74.75;101381.84;2067848;28;20046;-71
2022/04/20 04:39:03;;;;;;;4.82;1.50;;;;;;;14.42;74.42;101389.13;2068686;28;20072;-71
2022/04/20 04:40:29;;;;;;;3.15;1.52;;;;;;;14.56;74.06;101390.16;2065099;28;20413;-71
2022/04/20 04:41:52;;;;;;;3.92;1.35;;;;;;;14.68;73.74;101381.41;2075900;28;20135;-71
2022/04/20 04:43:17;;;;;;;5.30;1.33;;;;;;;14.82;73.39;101385.06;2062584;28;20046;-71
2022/04/20 04:44:41;;;;;;;4.15;1.40;;;;;;;14.96;72.75;101387.84;2076609;28;20042;-71
2022/04/20 04:49:43;;;;;;;6.13;1.30;;;;;;;15.35;71.32;101384.56;2063053;28;20117;-71
2022/04/20 04:51:05;;;;;;;2.53;1.20;;;;;;;15.50;71.49;101392.59;2074447;28;20045;-71
2022/04/20 04:52:29;;;;;;;2.95;1.30;;;;;;;15.66;71.38;101389.19;2068999;28;20053;-71
2022/04/20 04:53:58;;;;;;;4.60;1.65;;;;;;;15.84;71.19;101389.25;2071581;28;20049;-71
2022/04/20 04:55:30;;;;;;;4.13;1.48;;;;;;;16.03;70.68;101399.97;2064653;28;20042;-71
2022/04/20 04:56:51;;;;;;;7.50;1.30;;;;;;;16.18;70.32;101400.03;2062205;28;20070;-71
2022/04/20 04:58:14;;;;;;;4.35;1.60;;;;;;;16.32;69.78;101392.97;2077609;28;20140;-71
2022/04/20 04:59:41;;;;;;;5.07;1.48;;;;;;;16.49;69.29;101404.53;2056477;28;20081;-71
2022/04/20 05:01:03;;;;;;;6.10;2.30;;;;;;;16.60;69.23;101405.50;2051992;28;20129;-71
2022/04/20 05:02:26;;;;;;;5.78;1.98;;;;;;;16.76;68.71;101398.41;2052714;28;20054;-71
2022/04/20 05:03:47;;;;;;;3.80;1.98;;;;;;;16.89;67.04;101401.94;2051769;28;20047;-71
2022/04/20 05:05:12;;;;;;;5.85;1.60;;;;;;;16.98;66.72;101404.63;2060092;28;20161;-71
2022/04/20 05:06:35;;;;;;;4.72;1.35;;;;;;;17.09;66.19;101411.72;2063416;28;20109;-71
2022/04/20 05:08:18;;;;;;;4.68;1.23;;;;;;;17.26;66.00;101409.06;2077968;28;20049;-71
2022/04/20 05:09:40;;;;;;;4.60;1.33;;;;;;;17.37;64.97;101401.91;2077139;28;20136;-71
2022/04/20 05:11:04;;;;;;;5.10;1.55;;;;;;;17.51;64.24;101408.13;2069036;28;20519;-71
2022/04/20 05:12:27;;;;;;;7.25;1.75;;;;;;;17.64;63.39;101410.78;2067536;28;20056;-72
2022/04/20 05:13:49;;;;;;;6.93;2.05;;;;;;;17.74;61.59;101412.50;2063926;28;20054;-71
2022/04/20 05:15:13;;;;;;;3.45;1.33;;;;;;;17.85;61.64;101416.06;2060914;28;20667;-71
2022/04/20 05:16:36;;;;;;;4.90;1.95;;;;;;;17.96;61.31;101414.22;2072564;28;20148;-71
2022/04/20 05:18:01;;;;;;;4.55;1.50;;;;;;;18.14;60.65;101411.47;2056484;28;20500;-71
2022/04/20 05:19:24;;;;;;;12.93;2.47;;;;;;;18.35;60.13;101412.25;2053920;28;20054;-71
2022/04/20 05:20:50;;;;;;;3.88;1.15;;;;;;;18.56;59.96;101422.84;2064402;28;20054;-71
2022/04/20 05:22:16;;;;;;;6.07;1.50;;;;;;;18.75;59.74;101415.59;2054111;28;20501;-72
2022/04/20 05:23:39;;;;;;;5.57;1.55;;;;;;;18.96;59.21;101419.00;2064375;28;20057;-71
2022/04/20 05:25:02;;;;;;;3.33;1.25;;;;;;;19.17;58.38;101422.34;2053925;28;20141;-71
2022/04/20 05:26:25;;;;;;;5.80;2.20;;;;;;;19.35;57.78;101425.78;2059737;28;20138;-71
2022/04/20 05:27:48;;;;;;;6.03;1.83;;;;;;;19.56;57.11;101422.00;2051301;28;20292;-71
2022/04/20 05:29:14;;;;;;;5.28;1.70;;;;;;;19.76;56.52;101419.97;2068062;28;20046;-72
2022/04/20 05:30:56;;;;;;;11.75;2.53;;;;;;;19.95;55.24;101418.00;2064575;28;20051;-72
2022/04/20 05:32:19;;;;;;;7.75;1.90;;;;;;;20.07;54.89;101417.84;2062725;28;20050;-72
2022/04/20 05:33:40;;;;;;;6.32;1.63;;;;;;;20.20;54.36;101415.88;2062054;28;20145;-72
2022/04/20 05:35:05;;;;;;;8.48;2.38;;;;;;;20.35;53.26;101417.50;2058791;28;20132;-71
2022/04/20 05:41:39;;;;;;;6.68;2.30;;;;;;;20.47;53.24;101423.56;2066177;28;20615;-71
2022/04/20 05:41:43;;;;;;;6.90;2.70;;;;;;;21.24;51.68;101418.78;2068796;28;20045;-72
2022/04/20 05:43:10;;;;;;;6.00;1.85;;;;;;;21.43;51.01;101417.53;2056506;28;20101;-71
2022/04/20 05:44:33;;;;;;;8.25;2.13;;;;;;;21.57;49.76;101425.31;2064222;28;20073;-71
2022/04/20 05:45:57;;;;;;;5.65;1.38;;;;;;;21.69;49.17;101427.78;2065688;28;20049;-71
2022/04/20 05:47:29;;;;;;;8.23;1.92;;;;;;;21.84;48.76;101419.41;2064755;28;20050;-71
2022/04/20 05:48:52;;;;;;;4.03;2.00;;;;;;;21.96;47.14;101423.69;2072094;28;20080;-71
2022/04/20 05:50:16;;;;;;;5.18;1.45;;;;;;;22.09;47.06;101427.00;2069710;28;20057;-71
2022/04/20 05:51:39;;;;;;;10.60;3.22;;;;;;;22.23;46.48;101422.22;2060394;28;20450;-71
2022/04/20 05:53:02;;;;;;;10.77;1.42;;;;;;;22.38;46.32;101424.56;2051454;28;20474;-71
2022/04/20 05:54:25;;;;;;;7.97;1.60;;;;;;;22.46;45.91;101427.06;2068701;28;20058;-71
2022/04/20 05:55:50;;;;;;;4.13;1.40;;;;;;;22.44;45.70;101427.13;2064950;28;20046;-71
2022/04/20 05:57:13;;;;;;;6.18;1.40;;;;;;;22.44;45.24;101426.22;2068255;28;20193;-71
2022/04/20 05:58:38;;;;;;;3.80;1.73;;;;;;;22.47;44.89;101431.53;2052007;28;20421;-71
2022/04/20 06:00:01;;;;;;;4.25;1.15;;;;;;;22.51;44.89;101426.03;2066614;28;20053;-72
2022/04/20 06:01:26;;;;;;;6.00;1.25;;;;;;;22.65;44.49;101417.63;2065592;28;20058;-71
2022/04/20 06:02:49;;;;;;;8.40;1.65;;;;;;;22.82;44.47;101423.56;2075178;28;20041;-72
2022/04/20 06:04:16;;;;;;;5.00;1.33;;;;;;;22.99;44.24;101420.44;2072187;28;20049;-73
2022/04/20 06:06:01;;;;;;;5.22;1.60;;;;;;;23.03;42.85;101425.72;2065236;28;20185;-72
2022/04/20 06:07:36;;;;;;;7.05;1.70;;;;;;;23.04;41.90;101429.28;2063078;28;20081;-72
2022/04/20 06:09:19;;;;;;;5.53;1.30;;;;;;;23.04;42.04;101424.78;2085063;28;20049;-72
2022/04/20 06:11:00;;;;;;;4.18;1.10;;;;;;;23.21;41.58;101413.59;2079194;28;20042;-72
2022/04/20 06:12:23;;;;;;;6.05;1.52;;;;;;;23.22;41.54;101417.16;2068597;28;20491;-72
2022/04/20 06:13:59;;;;;;;5.15;1.55;;;;;;;23.36;40.90;101423.09;2070651;28;20037;-72
2022/04/20 06:15:38;;;;;;;6.38;1.52;;;;;;;23.56;40.48;101419.88;2069739;28;20092;-72
2022/04/20 06:17:06;;;;;;;6.53;1.40;;;;;;;23.69;39.94;101416.81;2074496;28;20042;-72
2022/04/20 06:18:33;;;;;;;3.25;1.40;;;;;;;23.65;39.52;101417.81;2080252;28;20049;-72
2022/04/20 06:20:22;;;;;;;7.90;1.63;;;;;;;23.54;39.80;101411.84;2064178;28;20600;-72
2022/04/20 06:22:07;;;;;;;5.25;1.23;;;;;;;23.59;40.20;101417.09;2064674;28;20050;-72
2022/04/20 06:23:50;;;;;;;3.50;1.02;;;;;;;23.57;40.58;101424.31;2080314;28;20068;-72
2022/04/20 06:25:35;;;;;;;4.53;1.15;;;;;;;23.44;40.38;101418.34;2080416;28;20096;-73
2022/04/20 06:27:22;;;;;;;5.50;1.45;;;;;;;23.44;40.71;101415.66;2072476;28;20068;-72
2022/04/20 06:29:10;;;;;;;7.53;1.40;;;;;;;23.51;40.52;101420.00;2067147;28;20657;-72
2022/04/20 06:30:39;;;;;;;4.95;1.30;;;;;;;23.56;40.60;101420.78;2069545;28;20140;-72
2022/04/20 06:32:29;;;;;;;5.93;1.23;;;;;;;23.62;39.92;101428.69;2071575;28;20080;-73
2022/04/20 06:34:10;;;;;;;9.15;1.88;;;;;;;23.55;40.10;101421.69;2063498;28;20408;-73
2022/04/20 06:35:49;;;;;;;6.07;1.77;;;;;;;23.50;40.03;101429.00;2068833;28;20073;-73
2022/04/20 06:37:30;;;;;;;5.80;1.27;;;;;;;23.55;40.22;101428.91;2071900;28;20706;-72
2022/04/20 06:39:15;;;;;;;7.15;1.40;;;;;;;23.68;39.84;101435.72;2064064;28;20152;-74
2022/04/20 06:41:04;;;;;;;3.45;1.20;;;;;;;23.74;39.69;101436.44;2061679;28;20096;-74
2022/04/20 06:42:52;;;;;;;3.67;1.10;;;;;;;23.76;39.90;101431.84;2075358;28;20176;-73
2022/04/20 06:44:44;;;;;;;3.10;1.02;;;;;;;23.79;39.74;101433.59;2057531;28;20096;-73
2022/04/20 06:46:27;;;;;;;3.53;1.27;;;;;;;23.78;39.64;101435.41;2078762;28;20057;-73
2022/04/20 06:48:14;;;;;;;5.70;1.90;;;;;;;23.72;39.46;101434.69;2054768;28;20145;-73
2022/04/20 06:49:43;;;;;;;5.68;1.20;;;;;;;23.77;39.24;101430.94;2061718;28;20538;-73
2022/04/20 06:51:26;;;;;;;6.85;1.40;;;;;;;23.75;39.25;101432.81;2063857;28;20069;-73
2022/04/20 06:59:48;;;;;;;4.68;1.25;;;;;;;23.68;39.05;101423.13;2070252;28;20080;-74
2022/04/20 07:01:23;;;;;;;8.68;2.47;;;;;;;23.78;38.68;101427.31;2055187;28;20043;-74
2022/04/20 07:03:08;;;;;;;10.18;1.90;;;;;;;23.88;37.81;101427.06;2072697;28;20057;-75
2022/04/20 07:04:58;;;;;;;6.40;1.40;;;;;;;23.96;38.14;101428.59;2071868;28;20045;-75